createdAt,value
2022-12-26T00:02:24.400Z,4.40
2022-12-26T00:07:55.750Z,4.39
2022-12-26T00:13:39.659Z,4.37
2022-12-26T00:19:12.739Z,4.36
2022-12-26T00:24:43.919Z,4.36
2022-12-26T00:30:15.262Z,4.34
2022-12-26T00:35:46.417Z,4.33
2022-12-26T00:41:18.753Z,4.31
2022-12-26T00:46:50.494Z,4.32
2022-12-26T00:52:21.862Z,4.32
2022-12-26T00:57:54.602Z,4.31
2022-12-26T01:03:25.880Z,4.31
2022-12-26T01:08:57.340Z,4.30
2022-12-26T01:14:28.443Z,4.31
2022-12-26T01:19:59.763Z,4.31
2022-12-26T01:25:30.792Z,4.33
2022-12-26T01:31:04.273Z,4.34
2022-12-26T01:36:35.586Z,4.35
2022-12-26T01:42:18.008Z,4.35
2022-12-26T01:48:22.446Z,4.36
2022-12-26T01:53:56.380Z,4.36
2022-12-26T01:59:50.505Z,4.36
2022-12-26T02:05:35.761Z,4.38
2022-12-26T02:11:12.252Z,4.37
2022-12-26T02:16:43.688Z,4.37
2022-12-26T02:22:21.101Z,4.36
2022-12-26T02:28:10.844Z,4.37
2022-12-26T02:34:15.363Z,4.37
2022-12-26T02:39:55.881Z,4.36
2022-12-26T02:45:52.607Z,4.37
2022-12-26T02:51:45.363Z,4.37
2022-12-26T02:57:44.572Z,4.37
2022-12-26T03:03:38.035Z,4.38
2022-12-26T03:09:43.624Z,4.37
2022-12-26T03:15:18.837Z,4.37
2022-12-26T03:20:50.378Z,4.37
2022-12-26T03:26:41.360Z,4.37
2022-12-26T03:32:13.507Z,4.37
2022-12-26T03:38:06.464Z,4.37
2022-12-26T03:44:16.532Z,4.37
2022-12-26T03:50:10.592Z,4.36
2022-12-26T03:56:16.072Z,4.37
2022-12-26T04:02:06.736Z,4.38
2022-12-26T04:08:01.837Z,4.38
2022-12-26T04:14:04.013Z,4.37
2022-12-26T04:19:43.962Z,4.37
2022-12-26T04:25:50.538Z,4.35
2022-12-26T04:31:54.747Z,4.35
2022-12-26T04:37:44.911Z,4.34
2022-12-26T04:43:48.492Z,4.35
2022-12-26T04:49:41.516Z,4.33
2022-12-26T04:55:12.999Z,4.33
2022-12-26T05:00:44.916Z,4.32
2022-12-26T05:06:36.434Z,4.33
2022-12-26T05:12:09.477Z,4.31
2022-12-26T05:17:59.394Z,4.31
2022-12-26T05:23:49.775Z,4.31
2022-12-26T05:29:21.172Z,4.31
2022-12-26T05:34:52.564Z,4.31
2022-12-26T05:40:23.883Z,4.30
2022-12-26T05:45:55.643Z,4.29
2022-12-26T05:51:27.592Z,4.31
2022-12-26T05:56:59.821Z,4.29
2022-12-26T06:02:31.083Z,4.31
2022-12-26T06:08:03.479Z,4.29
2022-12-26T06:13:34.892Z,4.30
2022-12-26T06:19:06.144Z,4.31
2022-12-26T06:24:37.456Z,4.32
2022-12-26T06:30:09.226Z,4.32
2022-12-26T06:35:40.588Z,4.33
2022-12-26T06:41:14.709Z,4.33
2022-12-26T06:46:46.912Z,4.33
2022-12-26T06:52:18.480Z,4.34
2022-12-26T06:57:52.596Z,4.34
2022-12-26T07:03:26.053Z,4.34
2022-12-26T07:09:02.835Z,4.34
2022-12-26T07:14:33.983Z,4.33
2022-12-26T07:20:08.617Z,4.34
2022-12-26T07:25:40.220Z,4.35
2022-12-26T07:31:19.989Z,4.34
2022-12-26T07:36:51.424Z,4.36
2022-12-26T07:42:22.587Z,4.36
2022-12-26T07:47:55.198Z,4.38
2022-12-26T07:53:26.750Z,4.40
2022-12-26T07:58:57.949Z,4.40
2022-12-26T08:04:29.013Z,4.41
2022-12-26T08:10:00.051Z,4.43
2022-12-26T08:15:32.582Z,4.45
2022-12-26T08:21:03.902Z,4.47
2022-12-26T08:26:35.099Z,4.46
2022-12-26T08:32:06.428Z,4.49
2022-12-26T08:37:37.366Z,4.50
2022-12-26T08:49:00.671Z,4.53
2022-12-26T08:54:32.119Z,4.57
2022-12-26T09:00:05.003Z,4.58
2022-12-26T09:05:36.000Z,4.59
2022-12-26T09:11:13.117Z,4.61
2022-12-26T09:16:50.432Z,4.64
2022-12-26T09:22:43.005Z,4.67
2022-12-26T09:28:14.173Z,4.72
2022-12-26T09:33:47.394Z,4.76
2022-12-26T09:39:18.485Z,4.82
2022-12-26T09:45:19.821Z,4.89
2022-12-26T09:50:51.982Z,4.99
2022-12-26T10:02:19.914Z,5.24
2022-12-26T10:08:12.861Z,5.30
2022-12-26T10:14:03.527Z,5.31
2022-12-26T10:20:01.626Z,5.34
2022-12-26T10:25:43.610Z,5.36
2022-12-26T10:31:35.810Z,5.33
2022-12-26T10:37:30.948Z,5.31
2022-12-26T10:43:16.483Z,5.30
2022-12-26T10:48:48.541Z,5.30
2022-12-26T10:54:20.393Z,5.31
2022-12-26T10:59:53.085Z,5.32
2022-12-26T11:05:48.841Z,5.34
2022-12-26T11:11:48.291Z,5.35
2022-12-26T11:17:28.970Z,5.36
2022-12-26T11:23:27.215Z,5.37
2022-12-26T11:29:21.181Z,5.40
2022-12-26T11:34:52.632Z,5.42
2022-12-26T11:40:27.655Z,5.43
2022-12-26T11:45:59.109Z,5.46
2022-12-26T11:51:43.807Z,5.48
2022-12-26T11:57:22.391Z,5.50
2022-12-26T12:02:53.884Z,5.53
2022-12-26T12:08:27.750Z,5.57
2022-12-26T12:14:02.568Z,5.59
2022-12-26T12:19:33.656Z,5.60
2022-12-26T12:25:12.368Z,5.62
2022-12-26T12:31:02.013Z,5.63
2022-12-26T12:37:14.317Z,5.63
2022-12-26T12:43:02.864Z,5.65
2022-12-26T12:48:49.457Z,5.67
2022-12-26T12:54:50.023Z,5.66
2022-12-26T13:00:23.760Z,5.67
2022-12-26T13:06:18.949Z,5.67
2022-12-26T13:12:02.800Z,5.68
2022-12-26T13:17:57.406Z,5.69
2022-12-26T13:23:49.206Z,5.69
2022-12-26T13:29:42.749Z,5.68
2022-12-26T13:35:51.036Z,5.66
2022-12-26T13:41:41.521Z,5.66
2022-12-26T13:47:32.565Z,5.65
2022-12-26T13:53:04.468Z,5.64
2022-12-26T13:58:40.321Z,5.63
2022-12-26T14:04:52.144Z,5.62
2022-12-26T14:10:23.272Z,5.62
2022-12-26T14:16:01.047Z,5.60
2022-12-26T14:21:47.299Z,5.60
2022-12-26T14:27:32.240Z,5.59
2022-12-26T14:33:22.048Z,5.58
2022-12-26T14:39:21.398Z,5.58
2022-12-26T14:44:57.716Z,5.56
2022-12-26T14:50:45.708Z,5.56
2022-12-26T14:56:29.811Z,5.56
2022-12-26T15:02:19.304Z,5.54
2022-12-26T15:08:09.995Z,5.55
2022-12-26T15:14:14.978Z,5.52
2022-12-26T15:20:01.837Z,5.51
2022-12-26T15:26:12.103Z,5.51
2022-12-26T15:32:13.870Z,5.50
2022-12-26T15:38:12.995Z,5.50
2022-12-26T15:44:15.050Z,5.50
2022-12-26T15:49:52.230Z,5.50
2022-12-26T15:55:39.653Z,5.48
2022-12-26T16:01:11.614Z,5.48
2022-12-26T16:07:01.604Z,5.45
2022-12-26T16:12:34.605Z,5.46
2022-12-26T16:18:35.569Z,5.46
2022-12-26T16:24:11.971Z,5.44
2022-12-26T16:29:47.369Z,5.44
2022-12-26T16:35:27.446Z,5.44
2022-12-26T16:41:00.697Z,5.44
2022-12-26T16:46:33.382Z,5.44
2022-12-26T16:52:04.782Z,5.44
2022-12-26T16:57:36.895Z,5.43
2022-12-26T17:03:11.398Z,5.43
2022-12-26T17:08:46.858Z,5.43
2022-12-26T17:14:32.243Z,5.43
2022-12-26T17:20:22.085Z,5.42
2022-12-26T17:26:22.311Z,5.43
2022-12-26T17:31:53.796Z,5.44
2022-12-26T17:37:25.603Z,5.43
2022-12-26T17:43:07.188Z,5.43
2022-12-26T17:48:38.389Z,5.44
2022-12-26T17:54:09.479Z,5.43
2022-12-26T17:59:41.186Z,5.43
2022-12-26T18:05:12.555Z,5.43
2022-12-26T18:10:43.744Z,5.43
2022-12-26T18:16:16.428Z,5.42
2022-12-26T18:21:47.826Z,5.42
2022-12-26T18:27:21.743Z,5.41
2022-12-26T18:32:54.217Z,5.41
2022-12-26T18:38:25.110Z,5.40
2022-12-26T18:43:58.163Z,5.40
2022-12-26T18:49:29.909Z,5.40
2022-12-26T18:55:01.183Z,5.40
2022-12-26T19:00:33.441Z,5.41
2022-12-26T19:06:05.167Z,5.41
2022-12-26T19:11:36.514Z,5.40
2022-12-26T19:17:07.513Z,5.41
2022-12-26T19:22:38.955Z,5.42
2022-12-26T19:28:10.270Z,5.42
2022-12-26T19:33:41.479Z,5.42
2022-12-26T19:39:12.645Z,5.42
2022-12-26T19:44:44.809Z,5.41
2022-12-26T19:50:16.038Z,5.41
2022-12-26T19:55:47.355Z,5.41
2022-12-26T20:01:21.824Z,5.42
2022-12-26T20:06:52.943Z,5.43
2022-12-26T20:12:24.164Z,5.44
2022-12-26T20:17:55.565Z,5.43
2022-12-26T20:23:27.257Z,5.42
2022-12-26T20:29:01.994Z,5.42
2022-12-26T20:34:32.971Z,5.43
2022-12-26T20:40:05.963Z,5.43
2022-12-26T20:45:38.254Z,5.44
2022-12-26T20:51:13.396Z,5.43
2022-12-26T20:56:45.641Z,5.43
2022-12-26T21:02:17.387Z,5.44
2022-12-26T21:07:49.062Z,5.44
2022-12-26T21:13:20.204Z,5.42
2022-12-26T21:18:51.661Z,5.44
2022-12-26T21:24:53.089Z,5.42
2022-12-26T21:30:25.749Z,5.41
2022-12-26T21:35:56.958Z,5.38
2022-12-26T21:41:27.972Z,5.36
2022-12-26T21:46:59.397Z,5.33
2022-12-26T21:52:30.719Z,5.29
2022-12-26T21:58:04.148Z,5.26
2022-12-26T22:03:54.138Z,5.24
2022-12-26T22:09:25.801Z,5.22
2022-12-26T22:14:57.144Z,5.21
2022-12-26T22:20:28.369Z,5.20
2022-12-26T22:25:59.722Z,5.18
2022-12-26T22:31:36.897Z,5.16
2022-12-26T22:37:07.962Z,5.15
2022-12-26T22:42:39.186Z,5.13
2022-12-26T22:48:10.386Z,5.12
2022-12-26T22:53:42.701Z,5.11
2022-12-26T22:59:33.872Z,5.11
2022-12-26T23:05:09.314Z,5.09
2022-12-26T23:10:42.316Z,5.08
2022-12-26T23:16:22.856Z,5.06
2022-12-26T23:21:54.239Z,5.05
2022-12-26T23:27:44.225Z,5.03
2022-12-26T23:33:15.604Z,5.02
2022-12-26T23:38:46.914Z,5.01
2022-12-26T23:44:18.346Z,4.99
2022-12-26T23:49:49.321Z,4.96
2022-12-26T23:55:20.470Z,4.96
